Sea Fury — WBL7992 — position and weather

sailwx.info

Track history (hours):
 
Tides and Currents Weather Stations Pressure Air Temp Water Temp Dewpoint Dewpoint Depression Visibility Wind Speed Wind Dir Waves Ship Positions

Sea Fury

Owner: SEABORN ENTERPRISES INC, GIG HARBOR, WA. More information available from US FCC via Universal Licensing System and Coast Guard Vessel Documentation Center.

Last reported at 2017-Nov-14 17:07 UTC. Time now 2017-Nov-21 08:24 UTC.
Position N 47°20' W 122°34'.

Length 19 m.

Type: Fishing. MMSI: 366344650.

Date/timePositionNaut miles runAvg speedWind from/ knotsBaromVisibWave heightAir tempDewpointWater temp
2017-Nov-14 17:07N 47°20' W 122°34'1 7.6
2017-Nov-14 16:57N 47°21' W 122°33'4 7.4
2017-Nov-14 16:28N 47°24' W 122°33'4 7.8
2017-Nov-14 16:00N 47°28' W 122°31'4 7.4
2017-Nov-14 15:30N 47°31' W 122°29'4 7.8
2017-Nov-14 15:00N 47°35' W 122°28'4 7.7
2017-Nov-14 14:29N 47°39' W 122°29'3 6.9
2017-Nov-14 14:00N 47°42' W 122°29'4 6.8
2017-Nov-14 13:30N 47°46' W 122°28'4 7.9
2017-Nov-14 13:00N 47°49' W 122°29'4 7.3
2017-Nov-14 12:30N 47°53' W 122°30'17 1.8
2017-Nov-14 03:12N 47°40' W 122°47'1 0.0
2017-Nov-12 22:40N 47°40' W 122°49'19 6.5
2017-Nov-12 19:43N 47°56' W 122°33'2 7.6
2017-Nov-12 19:30N 47°55' W 122°31'4 8.5
2017-Nov-12 19:00N 47°51' W 122°30'4 8.6
2017-Nov-12 18:29N 47°46' W 122°28'4 8.7
2017-Nov-12 18:00N 47°42' W 122°29'5 8.9
2017-Nov-12 17:30N 47°38' W 122°29'4 8.6
2017-Nov-12 17:00N 47°34' W 122°28'4 8.6
2017-Nov-12 16:30N 47°29' W 122°30'5 8.8
2017-Nov-12 15:59N 47°25' W 122°32'4 9.1
2017-Nov-12 15:30N 47°21' W 122°33'  
2017-Nov-08 21:19N 47°24' W 122°33'0 0.0
2017-Nov-08 20:43N 47°24' W 122°33'0 0.0
2017-Nov-08 20:19N 47°24' W 122°33'0 0.0
2017-Nov-08 19:55N 47°24' W 122°33'0 0.0
2017-Nov-08 19:25N 47°24' W 122°33'0 0.0
2017-Nov-08 18:55N 47°24' W 122°33'0 0.0
2017-Nov-08 18:28N 47°24' W 122°33'0 0.0
2017-Nov-08 17:58N 47°24' W 122°33'0 0.0
2017-Nov-08 17:25N 47°24' W 122°33'1 2.5
2017-Nov-08 17:00N 47°23' W 122°32'2 3.4
2017-Nov-08 16:30N 47°21' W 122°33'2 0.0
2017-Nov-07 03:21N 47°20' W 122°35'3 7.1
2017-Nov-07 03:00N 47°22' W 122°33'1 1.9
2017-Nov-07 02:23N 47°23' W 122°33'0 0.3
2017-Nov-07 01:59N 47°23' W 122°32'1 1.3
2017-Nov-07 01:11N 47°22' W 122°32'0 0.3
2017-Nov-07 01:00N 47°22' W 122°32'0 0.3
2017-Nov-07 00:30N 47°22' W 122°32'0 0.5
2017-Nov-06 23:59N 47°22' W 122°32'0 0.2
2017-Nov-06 23:25N 47°22' W 122°32'0 0.3
2017-Nov-06 22:54N 47°22' W 122°31'1 2.0
2017-Nov-06 22:30N 47°23' W 122°32'1 1.8
2017-Nov-06 21:55N 47°24' W 122°33'0 0.4
2017-Nov-06 21:29N 47°24' W 122°33'0 0.9
2017-Nov-06 20:59N 47°23' W 122°33'0 0.3
2017-Nov-06 20:26N 47°23' W 122°33'0 0.0
2017-Nov-06 02:22N 47°24' W 122°33'0 0.0
2017-Nov-06 01:43N 47°24' W 122°33'0 0.0
2017-Nov-06 00:43N 47°24' W 122°33'0 0.0
2017-Nov-06 00:16N 47°24' W 122°33'0 0.0
2017-Nov-05 23:55N 47°24' W 122°33'0 0.0
2017-Nov-05 23:28N 47°24' W 122°33'0 0.0
2017-Nov-05 22:58N 47°24' W 122°33'0 0.0
2017-Nov-05 22:13N 47°24' W 122°33'0 0.0
2017-Nov-05 21:55N 47°24' W 122°33'0 0.0
2017-Nov-05 21:22N 47°24' W 122°33'0 0.0
2017-Nov-05 20:58N 47°24' W 122°33'0 0.0
2017-Nov-05 20:19N 47°24' W 122°33'0 0.0
2017-Nov-05 19:58N 47°24' W 122°33'0 0.0
2017-Nov-05 19:28N 47°24' W 122°33'0 0.0
2017-Nov-05 18:43N 47°24' W 122°33'0 0.0
2017-Nov-05 18:28N 47°24' W 122°33'0 0.0
2017-Nov-05 17:55N 47°24' W 122°33'0 0.1
2017-Nov-05 17:25N 47°24' W 122°33'0 0.1
2017-Nov-05 16:58N 47°24' W 122°33'1 3.2
2017-Nov-05 16:30N 47°22' W 122°32'0 0.5
2017-Nov-05 16:00N 47°22' W 122°33'  
Track history (hours):
 
Tides and Currents Weather Stations Pressure Air Temp Water Temp Dewpoint Dewpoint Depression Visibility Wind Speed Wind Dir Waves Ship Positions

Sea Fury

Owner: SEABORN ENTERPRISES INC, GIG HARBOR, WA. More information available from US FCC via Universal Licensing System and Coast Guard Vessel Documentation Center.

Last reported at 2017-Nov-14 17:07 UTC. Time now 2017-Nov-21 08:24 UTC.
Position N 47°20' W 122°34'.

Length 19 m.

Type: Fishing. MMSI: 366344650.

Date/timePositionNaut miles runAvg speedWind from/ knotsBaromVisibWave heightAir tempDewpointWater temp
2017-Nov-14 17:07N 47°20' W 122°34'1 7.6
2017-Nov-14 16:57N 47°21' W 122°33'4 7.4
2017-Nov-14 16:28N 47°24' W 122°33'4 7.8
2017-Nov-14 16:00N 47°28' W 122°31'4 7.4
2017-Nov-14 15:30N 47°31' W 122°29'4 7.8
2017-Nov-14 15:00N 47°35' W 122°28'4 7.7
2017-Nov-14 14:29N 47°39' W 122°29'3 6.9
2017-Nov-14 14:00N 47°42' W 122°29'4 6.8
2017-Nov-14 13:30N 47°46' W 122°28'4 7.9
2017-Nov-14 13:00N 47°49' W 122°29'4 7.3
2017-Nov-14 12:30N 47°53' W 122°30'17 1.8
2017-Nov-14 03:12N 47°40' W 122°47'1 0.0
2017-Nov-12 22:40N 47°40' W 122°49'19 6.5
2017-Nov-12 19:43N 47°56' W 122°33'2 7.6
2017-Nov-12 19:30N 47°55' W 122°31'4 8.5
2017-Nov-12 19:00N 47°51' W 122°30'4 8.6
2017-Nov-12 18:29N 47°46' W 122°28'4 8.7
2017-Nov-12 18:00N 47°42' W 122°29'5 8.9
2017-Nov-12 17:30N 47°38' W 122°29'4 8.6
2017-Nov-12 17:00N 47°34' W 122°28'4 8.6
2017-Nov-12 16:30N 47°29' W 122°30'5 8.8
2017-Nov-12 15:59N 47°25' W 122°32'4 9.1
2017-Nov-12 15:30N 47°21' W 122°33'  
2017-Nov-08 21:19N 47°24' W 122°33'0 0.0
2017-Nov-08 20:43N 47°24' W 122°33'0 0.0
2017-Nov-08 20:19N 47°24' W 122°33'0 0.0
2017-Nov-08 19:55N 47°24' W 122°33'0 0.0
2017-Nov-08 19:25N 47°24' W 122°33'0 0.0
2017-Nov-08 18:55N 47°24' W 122°33'0 0.0
2017-Nov-08 18:28N 47°24' W 122°33'0 0.0
2017-Nov-08 17:58N 47°24' W 122°33'0 0.0
2017-Nov-08 17:25N 47°24' W 122°33'1 2.5
2017-Nov-08 17:00N 47°23' W 122°32'2 3.4
2017-Nov-08 16:30N 47°21' W 122°33'2 0.0
2017-Nov-07 03:21N 47°20' W 122°35'3 7.1
2017-Nov-07 03:00N 47°22' W 122°33'1 1.9
2017-Nov-07 02:23N 47°23' W 122°33'0 0.3
2017-Nov-07 01:59N 47°23' W 122°32'1 1.3
2017-Nov-07 01:11N 47°22' W 122°32'0 0.3
2017-Nov-07 01:00N 47°22' W 122°32'0 0.3
2017-Nov-07 00:30N 47°22' W 122°32'0 0.5
2017-Nov-06 23:59N 47°22' W 122°32'0 0.2
2017-Nov-06 23:25N 47°22' W 122°32'0 0.3
2017-Nov-06 22:54N 47°22' W 122°31'1 2.0
2017-Nov-06 22:30N 47°23' W 122°32'1 1.8
2017-Nov-06 21:55N 47°24' W 122°33'0 0.4
2017-Nov-06 21:29N 47°24' W 122°33'0 0.9
2017-Nov-06 20:59N 47°23' W 122°33'0 0.3
2017-Nov-06 20:26N 47°23' W 122°33'0 0.0
2017-Nov-06 02:22N 47°24' W 122°33'0 0.0
2017-Nov-06 01:43N 47°24' W 122°33'0 0.0
2017-Nov-06 00:43N 47°24' W 122°33'0 0.0
2017-Nov-06 00:16N 47°24' W 122°33'0 0.0
2017-Nov-05 23:55N 47°24' W 122°33'0 0.0
2017-Nov-05 23:28N 47°24' W 122°33'0 0.0
2017-Nov-05 22:58N 47°24' W 122°33'0 0.0
2017-Nov-05 22:13N 47°24' W 122°33'0 0.0
2017-Nov-05 21:55N 47°24' W 122°33'0 0.0
2017-Nov-05 21:22N 47°24' W 122°33'0 0.0
2017-Nov-05 20:58N 47°24' W 122°33'0 0.0
2017-Nov-05 20:19N 47°24' W 122°33'0 0.0
2017-Nov-05 19:58N 47°24' W 122°33'0 0.0
2017-Nov-05 19:28N 47°24' W 122°33'0 0.0
2017-Nov-05 18:43N 47°24' W 122°33'0 0.0
2017-Nov-05 18:28N 47°24' W 122°33'0 0.0
2017-Nov-05 17:55N 47°24' W 122°33'0 0.1
2017-Nov-05 17:25N 47°24' W 122°33'0 0.1
2017-Nov-05 16:58N 47°24' W 122°33'1 3.2
2017-Nov-05 16:30N 47°22' W 122°32'0 0.5
2017-Nov-05 16:00N 47°22' W 122°33'  

Dump ship's entire track history